PATK/TKA METAR and TAF weather

Enter ICAO airport designator
Station Type Date Time Source
PATK METAR 2022/01/26 13:53 UTC NOAA

PATK 261353Z AUTO 02004KT 10SM OVC050 M10/M13 A3025 RMK AO2 SLP251 T11001128 TSNO


Station Type Date Time Source
PATK Decoded METAR 2022/01/26 13:53 UTC NOAA

TALKEETNA AIRPORT, AK, United States (PATK) 62-19N 150-06W 109M
Jan 26, 2022 - 08:53 AM EST / 2022.01.26 1353 UTC
Wind: from the NNE (020 degrees) at 5 MPH (4 KT):0
Visibility: 10 mile(s):0
Sky conditions: overcast
Temperature: 14.0 F (-10.0 C)
Windchill: 6 F (-14 C):1
Dew Point: 9.0 F (-12.8 C)
Relative Humidity: 79%
Pressure (altimeter): 30.25 in. Hg (1024 hPa)
ob: PATK 261353Z AUTO 02004KT 10SM OVC050 M10/M13 A3025 RMK AO2 SLP251 T11001128 TSNO
cycle: 14

Station Type Date Time Source
PATK TAF 2022/01/26 12:39 UTC NOAA

TAF PATK 261136Z 2612/2712 01004KT P6SM SCT060
FM271000 36008KT P6SM SCT050 OVC150

Example: see airport list